createdAt,value
2023-04-21T00:01:59.022Z,6.50
2023-04-21T00:04:26.191Z,8.07
2023-04-21T00:06:53.384Z,7.05
2023-04-21T00:09:20.920Z,6.50
2023-04-21T00:11:47.877Z,8.57
2023-04-21T00:14:14.805Z,9.23
2023-04-21T00:16:41.594Z,10.13
2023-04-21T00:19:08.697Z,12.65
2023-04-21T00:21:35.779Z,10.63
2023-04-21T00:24:02.600Z,15.15
2023-04-21T00:26:29.356Z,8.90
2023-04-21T00:28:56.243Z,11.82
2023-04-21T00:31:23.031Z,11.85
2023-04-21T00:33:49.803Z,11.50
2023-04-21T00:36:16.598Z,11.38
2023-04-21T00:38:43.348Z,12.35
2023-04-21T00:41:10.157Z,9.95
2023-04-21T00:43:36.920Z,10.57
2023-04-21T00:46:03.737Z,11.77
2023-04-21T00:48:30.791Z,9.48
2023-04-21T00:50:57.524Z,10.98
2023-04-21T00:53:24.366Z,13.50
2023-04-21T00:55:51.673Z,11.48
2023-04-21T00:58:18.446Z,11.77
2023-04-21T01:00:45.652Z,13.30
2023-04-21T01:03:12.634Z,12.88
2023-04-21T01:05:39.876Z,10.93
2023-04-21T01:08:07.191Z,9.38
2023-04-21T01:10:33.955Z,11.05
2023-04-21T01:13:00.705Z,10.68
2023-04-21T01:15:31.113Z,10.98
2023-04-21T01:17:58.456Z,12.57
2023-04-21T01:20:25.295Z,12.50
2023-04-21T01:22:52.184Z,9.75
2023-04-21T01:25:19.954Z,10.65
2023-04-21T01:27:46.896Z,11.65
2023-04-21T01:30:13.668Z,11.00
2023-04-21T01:32:40.629Z,10.32
2023-04-21T01:35:07.753Z,11.05
2023-04-21T01:37:35.081Z,10.57
2023-04-21T01:40:05.549Z,10.98
2023-04-21T01:42:33.720Z,9.05
2023-04-21T01:45:00.990Z,9.35
2023-04-21T01:47:27.871Z,10.88
2023-04-21T01:49:54.711Z,10.18
2023-04-21T01:52:21.837Z,9.43
2023-04-21T01:54:48.739Z,9.65
2023-04-21T01:57:16.052Z,10.30
2023-04-21T01:59:43.734Z,9.52
2023-04-21T02:02:10.676Z,8.30
2023-04-21T02:04:37.671Z,10.05
2023-04-21T02:07:04.502Z,9.57
2023-04-21T02:09:31.998Z,8.43
2023-04-21T02:11:58.828Z,12.15
2023-04-21T02:14:26.323Z,11.13
2023-04-21T02:16:53.443Z,10.40
2023-04-21T02:19:20.685Z,10.10
2023-04-21T02:21:47.817Z,10.10
2023-04-21T02:24:14.575Z,10.82
2023-04-21T02:26:41.341Z,12.65
2023-04-21T02:29:08.098Z,13.00
2023-04-21T02:31:43.092Z,13.00
2023-04-21T02:34:16.851Z,12.55
2023-04-21T02:36:43.762Z,12.75
2023-04-21T02:39:10.639Z,10.05
2023-04-21T02:41:37.453Z,11.43
2023-04-21T02:44:04.404Z,11.70
2023-04-21T02:46:31.247Z,10.25
2023-04-21T02:48:58.042Z,11.05
2023-04-21T02:51:24.881Z,8.90
2023-04-21T02:53:51.654Z,10.80
2023-04-21T02:56:18.458Z,11.23
2023-04-21T02:58:46.003Z,11.60
2023-04-21T03:01:12.821Z,9.80
2023-04-21T03:03:39.636Z,10.30
2023-04-21T03:06:06.836Z,7.63
2023-04-21T03:08:33.627Z,9.43
2023-04-21T03:11:00.995Z,10.48
2023-04-21T03:13:27.785Z,10.70
2023-04-21T03:15:54.517Z,8.40
2023-04-21T03:18:21.310Z,10.00
2023-04-21T03:20:48.124Z,9.32
2023-04-21T03:23:14.889Z,7.65
2023-04-21T03:25:41.757Z,9.48
2023-04-21T03:28:08.700Z,9.65
2023-04-21T03:30:35.525Z,9.07
2023-04-21T03:33:02.395Z,8.48
2023-04-21T03:35:29.252Z,8.43
2023-04-21T03:37:56.013Z,8.63
2023-04-21T03:40:23.174Z,7.38
2023-04-21T03:42:49.962Z,7.43
2023-04-21T03:45:16.770Z,7.18
2023-04-21T03:47:43.544Z,6.95
2023-04-21T03:50:10.333Z,10.15
2023-04-21T03:52:37.233Z,6.78
2023-04-21T03:55:05.220Z,8.10
2023-04-21T03:57:31.956Z,9.32
2023-04-21T03:59:58.681Z,7.22
2023-04-21T04:02:26.039Z,7.72
2023-04-21T04:04:53.136Z,6.63
2023-04-21T04:07:19.962Z,7.13
2023-04-21T04:09:46.686Z,8.10
2023-04-21T04:12:13.456Z,6.07
2023-04-21T04:14:40.201Z,5.60
2023-04-21T04:17:06.934Z,6.45
2023-04-21T04:19:33.964Z,6.97
2023-04-21T04:22:01.380Z,5.57
2023-04-21T04:24:28.611Z,5.53
2023-04-21T04:26:55.611Z,6.80
2023-04-21T04:29:22.844Z,6.10
2023-04-21T04:31:51.169Z,5.25
2023-04-21T04:34:18.119Z,6.18
2023-04-21T04:36:45.848Z,6.28
2023-04-21T04:39:12.577Z,5.97
2023-04-21T04:41:39.473Z,4.95
2023-04-21T04:44:06.409Z,6.70
2023-04-21T04:46:33.206Z,7.53
2023-04-21T04:49:03.364Z,5.65
2023-04-21T04:51:30.357Z,4.78
2023-04-21T04:53:57.093Z,6.32
2023-04-21T04:56:23.971Z,6.38
2023-04-21T04:58:50.869Z,6.70
2023-04-21T05:01:18.101Z,5.53
2023-04-21T05:03:46.903Z,6.80
2023-04-21T05:06:14.473Z,7.05
2023-04-21T05:08:43.939Z,7.75
2023-04-21T05:11:10.854Z,7.15
2023-04-21T05:13:39.803Z,6.93
2023-04-21T05:16:08.020Z,7.65
2023-04-21T05:18:34.777Z,8.45
2023-04-21T05:21:01.484Z,7.50
2023-04-21T05:23:28.452Z,7.07
2023-04-21T05:25:55.192Z,6.32
2023-04-21T05:28:23.299Z,6.38
2023-04-21T05:30:50.115Z,7.57
2023-04-21T05:33:19.697Z,7.57
2023-04-21T05:35:46.520Z,7.63
2023-04-21T05:38:13.295Z,8.93
2023-04-21T05:40:40.119Z,6.72
2023-04-21T05:43:08.475Z,7.18
2023-04-21T05:45:39.919Z,6.88
2023-04-21T05:48:06.897Z,7.13
2023-04-21T05:50:35.711Z,8.73
2023-04-21T05:53:02.697Z,6.93
2023-04-21T05:55:29.534Z,9.60
2023-04-21T05:57:56.548Z,6.88
2023-04-21T06:00:23.285Z,7.85
2023-04-21T06:02:50.121Z,7.60
2023-04-21T06:05:17.130Z,8.27
2023-04-21T06:07:44.162Z,6.55
2023-04-21T06:10:12.078Z,7.72
2023-04-21T06:12:39.131Z,8.18
2023-04-21T06:15:06.665Z,7.82
2023-04-21T06:17:33.442Z,14.48
2023-04-21T06:20:00.314Z,8.20
2023-04-21T06:22:28.388Z,10.57
2023-04-21T06:24:55.164Z,9.65
2023-04-21T06:27:21.877Z,8.48
2023-04-21T06:29:48.568Z,9.00
2023-04-21T06:32:15.329Z,8.27
2023-04-21T06:34:42.060Z,7.05
2023-04-21T06:37:08.704Z,7.72
2023-04-21T06:39:35.427Z,8.05
2023-04-21T06:42:02.519Z,7.88
2023-04-21T06:44:29.934Z,11.35
2023-04-21T06:46:56.689Z,9.38
2023-04-21T06:49:23.445Z,11.13
2023-04-21T06:51:50.173Z,8.48
2023-04-21T06:54:17.085Z,6.38
2023-04-21T06:56:43.799Z,9.23
2023-04-21T06:59:10.530Z,5.85
2023-04-21T07:01:37.411Z,6.65
2023-04-21T07:04:06.318Z,8.25
2023-04-21T07:06:34.697Z,7.45
2023-04-21T07:09:01.557Z,6.78
2023-04-21T07:11:28.791Z,6.93
2023-04-21T07:13:55.896Z,8.02
2023-04-21T07:16:22.772Z,7.47
2023-04-21T07:18:49.541Z,6.07
2023-04-21T07:21:16.280Z,5.78
2023-04-21T07:23:43.004Z,8.27
2023-04-21T07:26:09.792Z,7.70
2023-04-21T07:28:37.449Z,4.43
2023-04-21T07:31:04.709Z,5.07
2023-04-21T07:33:31.443Z,7.65
2023-04-21T07:35:58.203Z,5.88
2023-04-21T07:38:25.155Z,6.32
2023-04-21T07:40:52.072Z,5.47
2023-04-21T07:43:19.956Z,8.02
2023-04-21T07:45:46.766Z,7.45
2023-04-21T07:48:13.670Z,8.57
2023-04-21T07:50:41.441Z,7.00
2023-04-21T07:53:08.155Z,7.00
2023-04-21T07:55:37.212Z,12.73
2023-04-21T07:58:06.850Z,6.85
2023-04-21T08:00:33.683Z,5.07
2023-04-21T08:03:00.544Z,6.70
2023-04-21T08:05:31.406Z,5.38
2023-04-21T08:08:00.276Z,4.55
2023-04-21T08:10:27.015Z,5.78
2023-04-21T08:12:53.718Z,4.13
2023-04-21T08:15:20.593Z,5.70
2023-04-21T08:17:47.384Z,7.75
2023-04-21T08:20:14.177Z,5.60
2023-04-21T08:22:41.267Z,7.35
2023-04-21T08:25:08.751Z,6.03
2023-04-21T08:27:38.293Z,6.68
2023-04-21T08:30:06.128Z,5.13
2023-04-21T08:32:32.911Z,8.60
2023-04-21T08:34:59.648Z,4.10
2023-04-21T08:37:26.378Z,6.45
2023-04-21T08:39:54.696Z,6.10
2023-04-21T08:42:21.574Z,4.25
2023-04-21T08:44:48.366Z,6.63
2023-04-21T08:47:16.238Z,3.65
2023-04-21T08:49:45.387Z,3.92
2023-04-21T08:52:14.484Z,6.82
2023-04-21T08:54:41.421Z,5.70
2023-04-21T08:57:15.258Z,6.15
2023-04-21T08:59:43.167Z,6.97
2023-04-21T09:02:15.187Z,7.80
2023-04-21T09:04:44.174Z,6.53
2023-04-21T09:07:11.445Z,3.22
2023-04-21T09:09:52.831Z,7.88
2023-04-21T09:12:19.958Z,5.53
2023-04-21T09:14:46.969Z,4.22
2023-04-21T09:17:16.598Z,5.90
2023-04-21T09:19:43.822Z,6.03
2023-04-21T09:22:15.658Z,4.63
2023-04-21T09:24:49.637Z,7.88
2023-04-21T09:27:19.184Z,6.05
2023-04-21T09:29:48.322Z,4.15
2023-04-21T09:32:19.759Z,6.07
2023-04-21T09:34:47.130Z,5.75
2023-04-21T09:37:17.406Z,3.92
2023-04-21T09:40:03.288Z,8.43
2023-04-21T09:42:38.977Z,4.20
2023-04-21T09:45:32.479Z,3.22
2023-04-21T09:47:59.616Z,5.60
2023-04-21T09:50:54.812Z,4.03
2023-04-21T09:53:17.857Z,5.93
2023-04-21T09:55:49.435Z,5.88
2023-04-21T09:58:20.399Z,5.43
2023-04-21T10:00:47.930Z,5.57
2023-04-21T10:03:17.299Z,5.70
2023-04-21T10:05:44.279Z,3.72
2023-04-21T10:08:12.702Z,5.30
2023-04-21T10:10:40.019Z,4.60
2023-04-21T10:13:07.570Z,3.53
2023-04-21T10:15:42.013Z,8.02
2023-04-21T10:18:13.426Z,2.75
2023-04-21T10:21:03.978Z,4.60
2023-04-21T10:23:36.178Z,4.85
2023-04-21T10:26:14.210Z,4.53
2023-04-21T10:28:45.737Z,4.30
2023-04-21T10:31:23.241Z,6.47
2023-04-21T10:34:14.169Z,5.65
2023-04-21T10:36:47.048Z,5.03
2023-04-21T10:39:33.634Z,4.03
2023-04-21T10:42:12.600Z,6.18
2023-04-21T10:44:53.063Z,3.72
2023-04-21T10:47:41.296Z,4.30
2023-04-21T10:50:31.885Z,5.07
2023-04-21T10:53:10.155Z,5.13
2023-04-21T10:55:37.426Z,5.07
2023-04-21T10:58:06.606Z,3.65
2023-04-21T11:00:33.580Z,4.40
2023-04-21T11:03:03.090Z,4.15
2023-04-21T11:05:41.439Z,5.53
2023-04-21T11:08:11.478Z,5.13
2023-04-21T11:10:53.376Z,3.70
2023-04-21T11:13:35.035Z,5.05
2023-04-21T11:16:08.487Z,4.63
2023-04-21T11:18:43.822Z,4.28
2023-04-21T11:21:20.247Z,4.90
2023-04-21T11:23:55.211Z,4.53
2023-04-21T11:26:38.357Z,3.70
2023-04-21T11:29:07.558Z,4.85
2023-04-21T11:31:35.424Z,5.40
2023-04-21T11:34:05.464Z,4.30
2023-04-21T11:36:41.784Z,5.07
2023-04-21T11:39:10.726Z,5.13
2023-04-21T11:41:41.799Z,5.70
2023-04-21T11:44:12.214Z,4.65
2023-04-21T11:46:46.747Z,4.97
2023-04-21T11:49:17.208Z,5.53
2023-04-21T11:51:44.827Z,2.92
2023-04-21T11:54:13.337Z,4.07
2023-04-21T11:56:46.623Z,4.97
2023-04-21T11:59:15.982Z,5.70
2023-04-21T12:01:47.369Z,4.57
2023-04-21T12:04:17.297Z,7.85
2023-04-21T12:06:46.333Z,6.47
2023-04-21T12:09:20.867Z,6.05
2023-04-21T12:11:50.117Z,5.47
2023-04-21T12:14:18.495Z,4.03
2023-04-21T12:16:55.396Z,4.80
2023-04-21T12:19:24.601Z,8.10
2023-04-21T12:21:56.607Z,4.93
2023-04-21T12:24:23.430Z,3.60
2023-04-21T12:26:50.210Z,4.63
2023-04-21T12:29:17.040Z,3.70
2023-04-21T12:31:43.860Z,3.50
2023-04-21T12:34:10.643Z,3.63
2023-04-21T12:36:38.724Z,3.78
2023-04-21T12:39:06.306Z,4.38
2023-04-21T12:41:34.739Z,4.53
2023-04-21T12:44:01.728Z,4.93
2023-04-21T12:46:28.826Z,5.25
2023-04-21T12:48:56.204Z,4.05
2023-04-21T12:51:22.976Z,3.30
2023-04-21T12:53:50.090Z,4.25
2023-04-21T12:56:16.882Z,3.55
2023-04-21T12:58:43.595Z,3.72
2023-04-21T13:01:12.368Z,8.35
2023-04-21T13:03:39.907Z,8.50
2023-04-21T13:06:07.075Z,4.10
2023-04-21T13:08:33.962Z,4.05
2023-04-21T13:11:01.249Z,4.38
2023-04-21T13:13:27.995Z,3.60
2023-04-21T13:15:54.749Z,4.07
2023-04-21T13:18:21.469Z,4.22
2023-04-21T13:20:48.259Z,4.13
2023-04-21T13:23:16.235Z,3.80
2023-04-21T13:25:44.963Z,3.50
2023-04-21T13:28:14.033Z,5.70
2023-04-21T13:30:40.862Z,5.22
2023-04-21T13:33:07.768Z,3.60
2023-04-21T13:35:34.554Z,5.75
2023-04-21T13:38:01.259Z,4.85
2023-04-21T13:40:28.352Z,3.42
2023-04-21T13:42:55.079Z,5.47
2023-04-21T13:45:22.088Z,5.13
2023-04-21T13:47:48.834Z,4.47
2023-04-21T13:50:15.695Z,5.82
2023-04-21T13:52:42.391Z,4.15
2023-04-21T13:55:09.461Z,7.07
2023-04-21T13:57:36.378Z,4.25
2023-04-21T14:00:06.678Z,4.00
2023-04-21T14:02:33.606Z,3.92
2023-04-21T14:05:01.084Z,4.00
2023-04-21T14:07:28.093Z,4.28
2023-04-21T14:09:54.888Z,3.80
2023-04-21T14:12:21.727Z,4.47
2023-04-21T14:14:48.551Z,3.65
2023-04-21T14:17:17.499Z,6.85
2023-04-21T14:19:44.458Z,5.25
2023-04-21T14:22:11.271Z,5.32
2023-04-21T14:24:38.080Z,5.47
2023-04-21T14:27:05.447Z,4.90
2023-04-21T14:29:32.775Z,9.18
2023-04-21T14:31:59.954Z,6.90
2023-04-21T14:34:26.851Z,6.13
2023-04-21T14:36:54.328Z,8.75
2023-04-21T14:39:21.300Z,4.78
2023-04-21T14:41:48.390Z,3.95
2023-04-21T14:44:16.038Z,5.28
2023-04-21T14:46:48.076Z,5.43
2023-04-21T14:49:21.895Z,6.97
2023-04-21T14:51:50.240Z,7.30
2023-04-21T14:54:17.010Z,6.65
2023-04-21T14:56:44.068Z,4.95
2023-04-21T14:59:11.107Z,9.10
2023-04-21T15:01:38.706Z,8.07
2023-04-21T15:04:07.156Z,9.95
2023-04-21T15:06:34.272Z,8.15
2023-04-21T15:09:01.174Z,8.05
2023-04-21T15:11:28.176Z,6.78
2023-04-21T15:13:55.253Z,9.23
2023-04-21T15:16:22.394Z,6.88
2023-04-21T15:18:49.886Z,9.85
2023-04-21T15:21:16.683Z,8.38
2023-04-21T15:26:30.793Z,7.85
2023-04-21T15:28:58.052Z,9.10
2023-04-21T15:31:24.930Z,10.48
2023-04-21T15:33:52.352Z,9.88
2023-04-21T15:36:19.163Z,10.90
2023-04-21T15:38:46.238Z,8.13
2023-04-21T15:41:13.558Z,10.52
2023-04-21T15:43:40.536Z,9.68
2023-04-21T15:46:15.502Z,10.10
2023-04-21T15:48:42.979Z,9.85
2023-04-21T15:51:13.270Z,12.40
2023-04-21T15:53:47.808Z,9.32
2023-04-21T15:56:15.797Z,7.60
2023-04-21T15:58:44.274Z,10.60
2023-04-21T16:01:11.488Z,10.18
2023-04-21T16:03:40.697Z,9.77
2023-04-21T16:06:08.451Z,8.27
2023-04-21T16:08:35.560Z,11.15
2023-04-21T16:11:02.666Z,11.00
2023-04-21T16:13:29.750Z,10.05
2023-04-21T16:15:57.537Z,9.88
2023-04-21T16:18:24.832Z,6.97
2023-04-21T16:20:52.017Z,10.38
2023-04-21T16:23:19.425Z,9.20
2023-04-21T16:25:46.255Z,10.00
2023-04-21T16:28:13.347Z,11.73
2023-04-21T16:30:43.631Z,8.90
2023-04-21T16:33:14.686Z,7.65
2023-04-21T16:35:42.124Z,9.57
2023-04-21T16:38:10.474Z,9.32
2023-04-21T16:40:37.552Z,9.60
2023-04-21T16:43:04.491Z,11.32
2023-04-21T16:45:31.384Z,8.13
2023-04-21T16:47:58.651Z,12.75
2023-04-21T16:50:25.730Z,9.57
2023-04-21T16:52:52.496Z,10.52
2023-04-21T16:55:19.417Z,17.05
2023-04-21T16:57:46.517Z,12.07
2023-04-21T17:00:14.190Z,10.27
2023-04-21T17:02:41.012Z,8.40
2023-04-21T17:05:08.394Z,8.90
2023-04-21T17:07:35.445Z,8.20
2023-04-21T17:10:02.323Z,10.18
2023-04-21T17:12:29.149Z,9.93
2023-04-21T17:14:55.992Z,8.90
2023-04-21T17:17:22.992Z,9.93
2023-04-21T17:19:49.725Z,9.93
2023-04-21T17:22:16.667Z,8.88
2023-04-21T17:24:52.552Z,9.02
2023-04-21T17:27:21.423Z,9.70
2023-04-21T17:29:48.372Z,13.05
2023-04-21T17:32:15.329Z,10.65
2023-04-21T17:34:42.101Z,11.57
2023-04-21T17:37:09.180Z,8.68
2023-04-21T17:39:36.027Z,11.77
2023-04-21T17:42:03.003Z,9.30
2023-04-21T17:44:31.074Z,9.93
2023-04-21T17:47:01.506Z,8.65
2023-04-21T17:49:28.299Z,9.55
2023-04-21T17:51:54.988Z,7.97
2023-04-21T17:54:24.451Z,9.70
2023-04-21T17:56:51.250Z,10.63
2023-04-21T17:59:17.973Z,9.63
2023-04-21T18:01:44.668Z,8.75
2023-04-21T18:04:12.096Z,12.25
2023-04-21T18:06:39.177Z,7.95
2023-04-21T18:09:06.202Z,8.18
2023-04-21T18:11:32.983Z,8.77
2023-04-21T18:13:59.981Z,8.75
2023-04-21T18:16:26.770Z,10.10
2023-04-21T18:18:56.886Z,8.55
2023-04-21T18:21:23.596Z,8.25
2023-04-21T18:23:50.320Z,7.63
2023-04-21T18:26:17.102Z,10.15
2023-04-21T18:28:43.879Z,9.75
2023-04-21T18:31:11.110Z,14.20
2023-04-21T18:33:38.284Z,10.38
2023-04-21T18:36:05.898Z,10.85
2023-04-21T18:38:32.552Z,9.85
2023-04-21T18:40:59.280Z,10.18
2023-04-21T18:43:26.107Z,10.15
2023-04-21T18:45:53.003Z,10.95
2023-04-21T18:48:19.729Z,12.32
2023-04-21T18:50:46.975Z,10.63
2023-04-21T18:53:13.669Z,9.18
2023-04-21T18:55:40.620Z,9.45
2023-04-21T18:58:07.409Z,11.02
2023-04-21T19:00:37.560Z,8.70
2023-04-21T19:03:08.857Z,7.95
2023-04-21T19:05:36.837Z,11.43
2023-04-21T19:08:03.557Z,9.40
2023-04-21T19:10:30.321Z,9.35
2023-04-21T19:12:57.168Z,9.35
2023-04-21T19:15:23.984Z,9.63
2023-04-21T19:17:50.849Z,9.25
2023-04-21T19:20:18.499Z,11.10
2023-04-21T19:22:45.266Z,9.50
2023-04-21T19:25:12.504Z,12.32
2023-04-21T19:27:40.971Z,11.02
2023-04-21T19:30:08.821Z,10.07
2023-04-21T19:32:35.803Z,11.73
2023-04-21T19:35:02.582Z,11.73
2023-04-21T19:37:29.427Z,12.75
2023-04-21T19:39:56.336Z,14.52
2023-04-21T19:42:23.051Z,15.38
2023-04-21T19:44:49.704Z,13.15
2023-04-21T19:47:16.757Z,10.32
2023-04-21T19:49:43.500Z,12.82
2023-04-21T19:52:10.144Z,12.60
2023-04-21T19:54:37.115Z,9.68
2023-04-21T19:57:04.059Z,10.80
2023-04-21T19:59:31.085Z,9.80
2023-04-21T20:01:58.675Z,8.98
2023-04-21T20:04:25.656Z,9.90
2023-04-21T20:06:52.993Z,9.10
2023-04-21T20:09:19.855Z,9.00
2023-04-21T20:11:46.580Z,11.52
2023-04-21T20:14:13.346Z,9.50
2023-04-21T20:16:41.303Z,9.35
2023-04-21T20:19:09.055Z,9.32
2023-04-21T20:21:35.774Z,9.98
2023-04-21T20:24:02.593Z,9.18
2023-04-21T20:26:29.488Z,9.48
2023-04-21T20:28:56.232Z,9.30
2023-04-21T20:31:25.551Z,12.43
2023-04-21T20:33:52.650Z,9.20
2023-04-21T20:36:19.534Z,10.68
2023-04-21T20:38:46.655Z,9.52
2023-04-21T20:41:13.611Z,7.97
2023-04-21T20:43:40.533Z,12.18
2023-04-21T20:46:08.952Z,9.70
2023-04-21T20:48:36.008Z,8.93
2023-04-21T20:51:02.885Z,11.50
2023-04-21T20:53:29.584Z,8.85
2023-04-21T20:55:57.382Z,15.00
2023-04-21T20:58:25.134Z,9.20
2023-04-21T21:00:51.995Z,12.70
2023-04-21T21:03:20.337Z,10.38
2023-04-21T21:05:47.634Z,10.95
2023-04-21T21:08:15.299Z,10.77
2023-04-21T21:10:42.175Z,13.02
2023-04-21T21:13:08.899Z,8.88
2023-04-21T21:15:35.949Z,13.43
2023-04-21T21:18:03.381Z,9.80
2023-04-21T21:20:30.135Z,12.75
2023-04-21T21:22:56.895Z,10.07
2023-04-21T21:25:23.661Z,9.63
2023-04-21T21:27:50.353Z,11.63
2023-04-21T21:30:17.164Z,9.50
2023-04-21T21:32:44.008Z,9.40
2023-04-21T21:35:12.064Z,11.95
2023-04-21T21:37:39.300Z,10.23
2023-04-21T21:40:07.231Z,10.38
2023-04-21T21:42:34.057Z,13.48
2023-04-21T21:45:01.115Z,10.13
2023-04-21T21:47:28.141Z,9.65
2023-04-21T21:49:56.109Z,10.70
2023-04-21T21:52:23.005Z,10.18
2023-04-21T21:54:49.839Z,9.95
2023-04-21T21:57:16.994Z,9.80
2023-04-21T21:59:44.129Z,11.90
2023-04-21T22:02:10.915Z,12.00
2023-04-21T22:04:37.986Z,15.30
2023-04-21T22:07:05.287Z,10.65
2023-04-21T22:09:32.166Z,10.07
2023-04-21T22:11:59.121Z,13.23
2023-04-21T22:14:25.960Z,9.18
2023-04-21T22:16:53.356Z,9.98
2023-04-21T22:19:20.538Z,12.45
2023-04-21T22:21:47.483Z,11.32
2023-04-21T22:24:14.532Z,15.00
2023-04-21T22:26:42.066Z,8.20
2023-04-21T22:29:08.772Z,10.48
2023-04-21T22:31:35.646Z,11.70
2023-04-21T22:34:02.650Z,12.77
2023-04-21T22:36:29.702Z,14.40
2023-04-21T22:38:56.407Z,13.48
2023-04-21T22:41:23.465Z,9.95
2023-04-21T22:43:50.210Z,17.75
2023-04-21T22:46:16.985Z,13.95
2023-04-21T22:48:46.646Z,9.80
2023-04-21T22:51:18.409Z,12.45
2023-04-21T22:53:45.126Z,11.60
2023-04-21T22:56:11.842Z,10.18
2023-04-21T22:58:38.638Z,9.00
2023-04-21T23:01:05.503Z,11.38
2023-04-21T23:03:32.423Z,12.60
2023-04-21T23:05:59.317Z,11.75
2023-04-21T23:08:26.389Z,12.30
2023-04-21T23:10:53.106Z,15.68
2023-04-21T23:13:19.802Z,13.38
2023-04-21T23:15:46.554Z,15.88
2023-04-21T23:18:13.281Z,11.95
2023-04-21T23:20:40.007Z,12.30
2023-04-21T23:23:06.952Z,12.93
2023-04-21T23:25:33.615Z,12.15
2023-04-21T23:28:00.385Z,13.10
2023-04-21T23:30:27.166Z,11.48
2023-04-21T23:32:53.979Z,13.05
2023-04-21T23:35:21.024Z,10.20
2023-04-21T23:37:48.798Z,12.90
2023-04-21T23:40:15.547Z,11.40
2023-04-21T23:42:42.258Z,10.45
2023-04-21T23:45:14.489Z,10.88
2023-04-21T23:47:41.222Z,13.60
2023-04-21T23:50:08.329Z,11.57
2023-04-21T23:52:35.112Z,10.55
2023-04-21T23:55:02.060Z,11.02
2023-04-21T23:57:28.929Z,14.32
2023-04-21T23:59:55.621Z,12.52
